Skip Navigation LinksHome page > Weather > Current weather Skip Navigation Links

Current Weather

Heathrow, London

For information only: do not use for flight planning or navigation.
Latest weather
Observation time Wednesday, October 27, 2021 7:50 AM BST
Local time Wednesday, October 27, 2021 8:03 AM BST
Flight conditions Marginal Visual Meteorological Conditions
Winds
Wind direction Southwest (230°)
Wind speed 13 mph
Visibility 6.2 mi.
Sky condition
Ceiling 2,800 ft. overcast
Cloud layer scattered clouds 2,000 ft.
Cloud layer overcast 2,800 ft.
Temperature 59°F
Dewpoint 54°F
Altimeter 30.06 in.Hg
Derived measurements
Relative humidity 82%
Density altitude 36 ft.
Remarks
Corrected report.
Fully automated report.
No significant changes expected in the next two hours.
METAR COR EGLL 270650Z AUTO 23011KT 9999 SCT020 OVC028 15/12 Q1018 NOSIG

Settings

Location code

InnerDrive.Weather 4.0.6770.0 Release CLR 4.0.30319.42000
Copyright ©2018 Inner Drive Technology. All rights reserved. Portions Copyright ©1986-2018 David Braverman.

Find weather

Site navigation


Skip Navigation Links

Place info

Page info

PayPal - The safer, easier way to pay online!

Return home.

Copyright ©2021 Inner Drive Technology. Purveyors of fine, hand-crafted computer software. Page printed 2021-10-27T07:03:59 UTC.